createdAt,value
2023-02-25T00:08:24.999Z,100365.66
2023-02-25T00:18:46.984Z,100375.97
2023-02-25T00:29:08.502Z,100398.28
2023-02-25T00:39:41.936Z,100399.97
2023-02-25T00:50:04.391Z,100403.44
2023-02-25T01:00:25.746Z,100409.38
2023-02-25T01:10:47.659Z,100428.09
2023-02-25T01:21:14.756Z,100434.13
2023-02-25T01:31:38.168Z,100447.81
2023-02-25T01:42:02.369Z,100448.59
2023-02-25T01:52:24.773Z,100459.59
2023-02-25T02:02:47.595Z,100455.25
2023-02-25T02:13:09.276Z,100463.75
2023-02-25T02:23:49.606Z,100465.38
2023-02-25T02:34:17.020Z,100466.09
2023-02-25T02:44:44.382Z,100478.88
2023-02-25T02:55:13.204Z,100495.91
2023-02-25T03:05:36.623Z,100486.53
2023-02-25T03:15:59.916Z,100510.47
2023-02-25T03:26:21.646Z,100524.19
2023-02-25T03:36:46.553Z,100542.19
2023-02-25T03:47:09.019Z,100552.41
2023-02-25T03:57:40.606Z,100573.78
2023-02-25T04:08:02.297Z,100597.78
2023-02-25T04:18:24.932Z,100601.25
2023-02-25T04:28:46.322Z,100617.56
2023-02-25T04:39:07.749Z,100626.19
2023-02-25T04:49:29.139Z,100628.84
2023-02-25T04:59:50.498Z,100633.97
2023-02-25T05:10:13.118Z,100642.69
2023-02-25T05:20:34.670Z,100647.03
2023-02-25T05:30:56.821Z,100667.56
2023-02-25T05:41:18.214Z,100677.00
2023-02-25T05:51:39.641Z,100660.84
2023-02-25T06:02:01.144Z,100684.81
2023-02-25T06:12:22.563Z,100693.41
2023-02-25T06:22:43.898Z,100713.09
2023-02-25T06:33:05.334Z,100715.72
2023-02-25T06:43:26.764Z,100743.97
2023-02-25T06:53:48.587Z,100767.03
2023-02-25T07:04:14.797Z,100790.06
2023-02-25T07:14:36.242Z,100800.38
2023-02-25T07:24:57.646Z,100808.09
2023-02-25T07:35:19.057Z,100823.41
2023-02-25T07:45:41.573Z,100825.03
2023-02-25T07:56:02.963Z,100844.66
2023-02-25T08:06:25.074Z,100872.91
2023-02-25T08:16:46.430Z,100884.13
2023-02-25T08:27:10.722Z,100894.34
2023-02-25T08:37:33.280Z,100908.88
2023-02-25T08:47:54.669Z,100933.66
2023-02-25T08:58:16.013Z,100939.53
2023-02-25T09:08:37.375Z,100970.22
2023-02-25T09:18:58.860Z,101000.97
2023-02-25T09:29:20.239Z,101027.59
2023-02-25T09:39:43.547Z,101043.00
2023-02-25T09:50:06.647Z,101059.25
2023-02-25T10:00:28.429Z,101081.44
2023-02-25T10:11:10.201Z,101090.78
2023-02-25T10:21:50.608Z,101093.34
2023-02-25T10:32:16.025Z,101112.13
2023-02-25T10:42:37.951Z,101140.34
2023-02-25T10:53:03.880Z,101144.63
2023-02-25T11:03:27.778Z,101152.28
2023-02-25T11:14:03.428Z,101171.13
2023-02-25T11:24:33.400Z,101184.75
2023-02-25T11:35:02.695Z,101201.84
2023-02-25T11:45:24.072Z,101193.31
2023-02-25T11:55:45.445Z,101201.00
2023-02-25T12:06:09.799Z,101220.66
2023-02-25T12:16:50.231Z,101230.88
2023-02-25T12:27:27.574Z,101232.59
2023-02-25T12:38:07.757Z,101252.25
2023-02-25T12:48:29.093Z,101261.63
2023-02-25T12:59:05.675Z,101277.88
2023-02-25T13:09:49.672Z,101293.25
2023-02-25T13:20:23.401Z,101309.50
2023-02-25T13:30:50.949Z,101307.78
2023-02-25T13:41:12.524Z,101315.47
2023-02-25T13:51:49.164Z,101317.19
2023-02-25T14:02:25.970Z,101336.03
2023-02-25T14:12:47.375Z,101359.09
2023-02-25T14:23:12.820Z,101357.41
2023-02-25T14:33:54.923Z,101376.22
2023-02-25T14:44:20.354Z,101383.06
2023-02-25T14:55:00.625Z,101376.22
2023-02-25T15:05:28.721Z,101392.44
2023-02-25T15:16:13.521Z,101389.88
2023-02-25T15:26:43.201Z,101422.41
2023-02-25T15:37:25.550Z,101426.66
2023-02-25T15:47:47.551Z,101426.66
2023-02-25T15:58:32.170Z,101440.34
2023-02-25T16:08:53.503Z,101448.03
2023-02-25T16:19:17.143Z,101456.59
2023-02-25T16:29:44.673Z,101461.72
2023-02-25T16:40:12.591Z,101460.88
2023-02-25T16:50:35.140Z,101475.44
2023-02-25T17:00:58.283Z,101495.97
2023-02-25T17:11:22.625Z,101545.53
2023-02-25T17:21:46.476Z,101556.34
2023-02-25T17:32:22.026Z,101576.63
2023-02-25T17:42:43.909Z,101600.41
2023-02-25T17:53:05.440Z,101609.56
2023-02-25T18:03:30.521Z,101640.09
2023-02-25T18:13:51.921Z,101651.03
2023-02-25T18:24:27.995Z,101650.03
2023-02-25T18:34:49.402Z,101668.72
2023-02-25T18:45:15.138Z,101666.06
2023-02-25T18:55:36.505Z,101687.31
2023-02-25T19:05:57.914Z,101678.69
2023-02-25T19:16:19.428Z,101685.47
2023-02-25T19:26:41.675Z,101693.03
2023-02-25T19:37:03.050Z,101693.84
2023-02-25T19:47:24.587Z,101707.44
2023-02-25T19:57:46.680Z,101714.22
2023-02-25T20:08:08.425Z,101731.16
2023-02-25T20:18:29.848Z,101745.69
2023-02-25T20:28:52.165Z,101752.56
2023-02-25T20:39:28.680Z,101772.13
2023-02-25T20:49:50.204Z,101773.78
2023-02-25T21:00:15.073Z,101789.03
2023-02-25T21:10:37.667Z,101808.59
2023-02-25T21:20:59.657Z,101804.31
2023-02-25T21:31:21.057Z,101832.56
2023-02-25T21:41:44.556Z,101853.78
2023-02-25T21:52:06.517Z,101846.88
2023-02-25T22:02:29.754Z,101862.03
2023-02-25T22:12:53.712Z,101859.22
2023-02-25T22:23:15.153Z,101866.69
2023-02-25T22:33:36.705Z,101881.91
2023-02-25T22:43:58.662Z,101905.50
2023-02-25T22:54:20.124Z,101919.00
2023-02-25T23:04:41.466Z,101942.00
2023-02-25T23:15:03.230Z,101947.72
2023-02-25T23:25:24.584Z,101949.28
2023-02-25T23:35:46.025Z,101971.22
2023-02-25T23:46:07.439Z,101984.84
2023-02-25T23:56:30.768Z,101993.28
